createdAt,value
2022-11-22T00:00:54.345Z,91.35
2022-11-22T00:03:22.426Z,92.43
2022-11-22T00:05:50.285Z,92.30
2022-11-22T00:08:18.442Z,92.38
2022-11-22T00:10:46.348Z,91.59
2022-11-22T00:13:14.210Z,90.20
2022-11-22T00:15:42.074Z,89.77
2022-11-22T00:18:11.718Z,89.59
2022-11-22T00:20:39.626Z,88.01
2022-11-22T00:23:07.509Z,89.02
2022-11-22T00:25:35.383Z,88.03
2022-11-22T00:28:03.289Z,87.70
2022-11-22T00:30:31.099Z,87.13
2022-11-22T00:32:58.983Z,88.09
2022-11-22T00:35:28.304Z,87.72
2022-11-22T00:37:56.235Z,87.35
2022-11-22T00:40:24.152Z,88.30
2022-11-22T00:42:52.076Z,88.67
2022-11-22T00:45:19.880Z,88.98
2022-11-22T00:47:47.762Z,89.10
2022-11-22T00:50:15.739Z,89.12
2022-11-22T00:52:45.030Z,88.92
2022-11-22T00:55:12.896Z,88.47
2022-11-22T00:57:40.817Z,88.60
2022-11-22T01:00:10.270Z,88.94
2022-11-22T01:02:38.219Z,88.04
2022-11-22T01:05:06.708Z,87.23
2022-11-22T01:07:34.613Z,87.71
2022-11-22T01:10:03.884Z,87.29
2022-11-22T01:12:31.778Z,88.23
2022-11-22T01:14:59.656Z,88.47
2022-11-22T01:17:28.235Z,89.37
2022-11-22T01:19:56.103Z,88.66
2022-11-22T01:22:23.976Z,87.25
2022-11-22T01:24:51.840Z,88.05
2022-11-22T01:27:21.133Z,87.91
2022-11-22T01:29:48.984Z,87.84
2022-11-22T01:32:16.875Z,88.66
2022-11-22T01:34:44.686Z,89.27
2022-11-22T01:37:12.529Z,90.20
2022-11-22T01:39:40.388Z,89.81
2022-11-22T01:42:08.334Z,90.83
2022-11-22T01:44:37.535Z,89.69
2022-11-22T01:47:08.976Z,90.56
2022-11-22T01:49:40.526Z,90.79
2022-11-22T01:52:15.095Z,89.66
2022-11-22T01:54:47.082Z,89.71
2022-11-22T01:57:18.513Z,89.11
2022-11-22T01:59:53.053Z,89.82
2022-11-22T02:02:20.941Z,91.01
2022-11-22T02:04:52.028Z,90.39
2022-11-22T02:07:23.736Z,91.52
2022-11-22T02:09:53.842Z,91.53
2022-11-22T02:12:27.962Z,92.32
2022-11-22T02:14:58.292Z,91.82
2022-11-22T02:17:27.314Z,91.86
2022-11-22T02:19:56.632Z,90.39
2022-11-22T02:22:32.565Z,91.51
2022-11-22T02:25:08.041Z,91.54
2022-11-22T02:27:37.291Z,92.14
2022-11-22T02:30:06.008Z,92.19
2022-11-22T02:32:33.833Z,91.36
2022-11-22T02:35:01.710Z,92.27
2022-11-22T02:37:32.820Z,92.15
2022-11-22T02:40:06.160Z,93.23
2022-11-22T02:42:35.085Z,93.43
2022-11-22T02:45:04.806Z,93.55
2022-11-22T02:47:32.722Z,93.83
2022-11-22T02:50:00.620Z,94.57
2022-11-22T02:52:28.526Z,95.43
2022-11-22T02:54:56.694Z,94.45
2022-11-22T02:57:24.669Z,93.85
2022-11-22T02:59:52.567Z,93.89
2022-11-22T03:02:21.812Z,94.02
2022-11-22T03:04:49.800Z,93.47
2022-11-22T03:07:18.384Z,94.50
2022-11-22T03:09:46.362Z,93.96
2022-11-22T03:12:14.197Z,93.05
2022-11-22T03:14:42.905Z,93.19
2022-11-22T03:17:10.728Z,92.87
2022-11-22T03:19:39.995Z,91.75
2022-11-22T03:22:07.906Z,92.24
2022-11-22T03:24:35.858Z,92.09
2022-11-22T03:27:03.756Z,92.80
2022-11-22T03:29:31.962Z,93.47
2022-11-22T03:32:00.025Z,93.80
2022-11-22T03:34:28.164Z,93.45
2022-11-22T03:36:57.454Z,93.57
2022-11-22T03:39:25.535Z,93.18
2022-11-22T03:41:55.382Z,93.54
2022-11-22T03:44:23.377Z,93.89
2022-11-22T03:46:51.255Z,92.94
2022-11-22T03:49:19.220Z,93.09
2022-11-22T03:51:47.051Z,93.88
2022-11-22T03:54:16.418Z,94.00
2022-11-22T03:56:44.250Z,92.99
2022-11-22T03:59:12.118Z,94.19
2022-11-22T04:01:40.018Z,94.75
2022-11-22T04:04:07.966Z,94.75
2022-11-22T04:06:35.829Z,94.59
2022-11-22T04:09:03.738Z,95.73
2022-11-22T04:11:32.989Z,94.97
2022-11-22T04:14:18.131Z,95.88
2022-11-22T04:16:45.937Z,96.26
2022-11-22T04:19:13.817Z,95.85
2022-11-22T04:21:40.643Z,96.05
2022-11-22T04:24:28.539Z,95.52
2022-11-22T04:26:58.441Z,95.63
2022-11-22T04:29:26.353Z,96.38
2022-11-22T04:32:11.757Z,95.60
2022-11-22T04:34:39.694Z,96.41
2022-11-22T04:37:07.905Z,96.86
2022-11-22T04:39:35.936Z,97.59
2022-11-22T04:42:23.009Z,97.47
2022-11-22T04:44:50.873Z,97.82
2022-11-22T04:47:38.524Z,97.95
2022-11-22T04:50:29.135Z,97.83
2022-11-22T04:52:57.592Z,97.46
2022-11-22T04:55:26.004Z,96.84
2022-11-22T04:57:59.469Z,96.63
2022-11-22T05:00:28.612Z,96.08
2022-11-22T05:02:56.566Z,96.93
2022-11-22T05:05:24.937Z,96.93
2022-11-22T05:07:53.033Z,97.10
2022-11-22T05:10:26.139Z,97.42
2022-11-22T05:12:56.729Z,96.88
2022-11-22T05:15:25.135Z,97.56
2022-11-22T05:17:53.009Z,97.63
2022-11-22T05:20:21.160Z,98.49
2022-11-22T05:23:06.214Z,99.41
2022-11-22T05:25:34.138Z,99.35
2022-11-22T05:28:03.472Z,100.00
2022-11-22T05:30:31.390Z,100.00
2022-11-22T05:32:59.266Z,100.00
2022-11-22T05:35:27.158Z,100.00
2022-11-22T05:37:57.176Z,100.00
2022-11-22T05:40:25.481Z,100.00
2022-11-22T05:42:53.410Z,100.00
2022-11-22T05:45:22.675Z,100.00
2022-11-22T05:47:50.548Z,100.00
2022-11-22T05:50:18.431Z,100.00
2022-11-22T05:52:46.239Z,100.00
2022-11-22T05:55:14.098Z,100.00
2022-11-22T05:57:41.941Z,100.00
2022-11-22T06:00:10.914Z,100.00
2022-11-22T06:02:40.182Z,100.00
2022-11-22T06:05:09.080Z,100.00
2022-11-22T06:07:37.146Z,100.00
2022-11-22T06:10:05.458Z,100.00
2022-11-22T06:12:33.308Z,100.00
2022-11-22T06:15:01.273Z,100.00
2022-11-22T06:17:29.171Z,100.00
2022-11-22T06:20:02.819Z,100.00
2022-11-22T06:22:33.859Z,100.00
2022-11-22T06:25:01.945Z,100.00
2022-11-22T06:27:29.796Z,100.00
2022-11-22T06:29:57.623Z,100.00
2022-11-22T06:32:25.703Z,100.00
2022-11-22T06:34:53.636Z,100.00
2022-11-22T06:37:22.897Z,100.00
2022-11-22T06:39:51.101Z,100.00
2022-11-22T06:42:19.139Z,100.00
2022-11-22T06:44:47.009Z,100.00
2022-11-22T06:47:14.896Z,100.00
2022-11-22T06:49:42.748Z,100.00
2022-11-22T06:52:10.635Z,100.00
2022-11-22T06:54:39.960Z,100.00
2022-11-22T06:57:07.865Z,100.00
2022-11-22T06:59:36.147Z,100.00
2022-11-22T07:02:06.637Z,100.00
2022-11-22T07:04:34.871Z,100.00
2022-11-22T07:07:02.784Z,100.00
2022-11-22T07:09:30.934Z,100.00
2022-11-22T07:12:00.339Z,100.00
2022-11-22T07:14:28.179Z,100.00
2022-11-22T07:16:56.040Z,100.00
2022-11-22T07:19:23.887Z,100.00
2022-11-22T07:21:51.810Z,100.00
2022-11-22T07:24:19.665Z,100.00
2022-11-22T07:26:47.557Z,100.00
2022-11-22T07:29:16.764Z,100.00
2022-11-22T07:31:46.355Z,100.00
2022-11-22T07:34:14.400Z,100.00
2022-11-22T07:36:42.275Z,100.00
2022-11-22T07:39:10.117Z,100.00
2022-11-22T07:41:37.974Z,100.00
2022-11-22T07:44:06.066Z,100.00
2022-11-22T07:46:35.317Z,100.00
2022-11-22T07:49:03.478Z,100.00
2022-11-22T07:51:31.633Z,100.00
2022-11-22T07:53:59.543Z,100.00
2022-11-22T07:56:27.493Z,100.00
2022-11-22T07:58:56.100Z,100.00
2022-11-22T08:01:24.109Z,100.00
2022-11-22T08:03:53.362Z,100.00
2022-11-22T08:06:22.412Z,100.00
2022-11-22T08:08:50.261Z,100.00
2022-11-22T08:11:18.154Z,100.00
2022-11-22T08:13:46.016Z,100.00
2022-11-22T08:16:16.402Z,100.00
2022-11-22T08:18:48.098Z,100.00
2022-11-22T08:21:19.073Z,100.00
2022-11-22T08:23:48.404Z,100.00
2022-11-22T08:26:17.934Z,100.00
2022-11-22T08:28:46.073Z,100.00
2022-11-22T08:31:15.774Z,100.00
2022-11-22T08:33:43.677Z,100.00
2022-11-22T08:36:11.906Z,100.00
2022-11-22T08:38:41.184Z,100.00
2022-11-22T08:41:09.123Z,100.00
2022-11-22T08:43:37.504Z,100.00
2022-11-22T08:46:05.982Z,100.00
2022-11-22T08:48:35.343Z,100.00
2022-11-22T08:51:04.685Z,100.00
2022-11-22T08:53:33.692Z,99.75
2022-11-22T08:56:04.118Z,100.00
2022-11-22T08:58:32.838Z,99.09
2022-11-22T09:01:06.278Z,98.69
2022-11-22T09:03:36.002Z,97.75
2022-11-22T09:09:15.129Z,95.23
2022-11-22T09:11:42.086Z,93.04
2022-11-22T09:14:09.950Z,93.42
2022-11-22T09:16:37.804Z,91.76
2022-11-22T09:19:05.748Z,92.87
2022-11-22T09:21:33.693Z,92.28
2022-11-22T09:24:01.618Z,91.72
2022-11-22T09:26:30.592Z,91.71
2022-11-22T09:28:59.835Z,90.29
2022-11-22T09:31:27.667Z,90.80
2022-11-22T09:33:55.496Z,90.18
2022-11-22T09:36:26.279Z,88.67
2022-11-22T09:38:54.565Z,87.54
2022-11-22T09:41:48.485Z,83.71
2022-11-22T09:44:24.568Z,82.20
2022-11-22T09:46:54.725Z,81.22
2022-11-22T09:49:31.056Z,80.23
2022-11-22T09:52:07.251Z,79.20
2022-11-22T09:54:41.735Z,79.43
2022-11-22T09:57:15.726Z,80.76
2022-11-22T09:59:48.218Z,80.93
2022-11-22T10:02:20.788Z,80.17
2022-11-22T10:04:55.623Z,78.09
2022-11-22T10:07:29.816Z,76.93
2022-11-22T10:10:05.125Z,76.17
2022-11-22T10:12:38.607Z,74.20
2022-11-22T10:15:17.719Z,72.02
2022-11-22T10:17:54.032Z,73.65
2022-11-22T10:20:23.593Z,73.83
2022-11-22T10:22:52.034Z,71.64
2022-11-22T10:25:22.015Z,72.56
2022-11-22T10:27:59.206Z,72.58
2022-11-22T10:30:37.209Z,69.43
2022-11-22T10:33:15.220Z,69.79
2022-11-22T10:36:06.036Z,70.58
2022-11-22T10:38:45.020Z,69.76
2022-11-22T10:41:24.369Z,69.26
2022-11-22T10:44:04.080Z,68.88
2022-11-22T10:46:56.541Z,63.21
2022-11-22T10:49:39.882Z,64.03
2022-11-22T10:52:17.712Z,62.75
2022-11-22T10:54:52.180Z,63.27
2022-11-22T10:57:34.114Z,62.20
2022-11-22T11:00:17.547Z,62.88
2022-11-22T11:03:26.683Z,62.86
2022-11-22T11:11:42.242Z,63.25
2022-11-22T11:14:19.994Z,63.20
2022-11-22T11:16:48.858Z,63.29
2022-11-22T11:19:20.421Z,64.66
2022-11-22T11:21:56.957Z,64.56
2022-11-22T11:24:24.853Z,64.40
2022-11-22T11:26:55.510Z,65.49
2022-11-22T11:29:37.862Z,65.79
2022-11-22T11:32:09.369Z,65.41
2022-11-22T11:34:41.813Z,66.83
2022-11-22T11:37:22.334Z,66.12
2022-11-22T11:39:50.721Z,67.71
2022-11-22T11:42:28.313Z,65.41
2022-11-22T11:44:56.584Z,66.22
2022-11-22T11:47:42.062Z,67.18
2022-11-22T11:50:23.928Z,67.33
2022-11-22T11:52:55.069Z,67.22
2022-11-22T11:55:23.266Z,67.33
2022-11-22T11:57:54.310Z,65.88
2022-11-22T12:00:27.284Z,66.61
2022-11-22T12:03:00.863Z,65.25
2022-11-22T12:05:32.677Z,66.01
2022-11-22T12:08:02.119Z,63.90
2022-11-22T12:10:45.348Z,63.78
2022-11-22T12:13:22.642Z,63.00
2022-11-22T12:15:57.305Z,61.06
2022-11-22T12:18:42.693Z,64.57
2022-11-22T12:21:23.821Z,65.17
2022-11-22T12:24:19.523Z,64.04
2022-11-22T12:26:45.360Z,63.09
2022-11-22T12:29:15.001Z,63.83
2022-11-22T12:31:47.684Z,63.63
2022-11-22T12:34:22.012Z,61.66
2022-11-22T12:36:57.642Z,63.39
2022-11-22T12:39:30.551Z,63.70
2022-11-22T12:42:04.041Z,63.20
2022-11-22T12:44:45.940Z,61.47
2022-11-22T12:47:18.060Z,63.41
2022-11-22T12:49:51.596Z,62.43
2022-11-22T12:52:27.485Z,62.55
2022-11-22T12:55:03.551Z,59.56
2022-11-22T12:57:45.026Z,61.67
2022-11-22T13:00:17.149Z,60.59
2022-11-22T13:02:59.313Z,60.64
2022-11-22T13:05:32.576Z,57.53
2022-11-22T13:08:13.148Z,58.09
2022-11-22T13:10:51.737Z,59.32
2022-11-22T13:13:25.861Z,57.78
2022-11-22T13:15:56.450Z,58.40
2022-11-22T13:18:30.356Z,55.52
2022-11-22T13:21:08.639Z,57.35
2022-11-22T13:23:52.866Z,59.94
2022-11-22T13:26:30.945Z,58.66
2022-11-22T13:28:59.978Z,57.02
2022-11-22T13:31:27.945Z,57.08
2022-11-22T13:33:58.694Z,56.78
2022-11-22T13:36:49.190Z,58.62
2022-11-22T13:39:26.029Z,57.59
2022-11-22T13:42:04.358Z,58.20
2022-11-22T13:44:51.327Z,57.02
2022-11-22T13:47:42.620Z,57.98
2022-11-22T13:50:52.481Z,58.44
2022-11-22T13:53:33.398Z,56.94
2022-11-22T13:57:00.873Z,58.20
2022-11-22T13:59:29.130Z,58.15
2022-11-22T14:02:00.157Z,58.15
2022-11-22T14:04:46.480Z,57.29
2022-11-22T14:07:33.174Z,55.87
2022-11-22T14:10:03.304Z,57.82
2022-11-22T14:12:57.257Z,58.79
2022-11-22T14:15:39.950Z,60.20
2022-11-22T14:18:34.338Z,60.28
2022-11-22T14:21:06.200Z,62.33
2022-11-22T14:23:46.473Z,62.68
2022-11-22T14:26:25.713Z,64.19
2022-11-22T14:29:32.289Z,63.14
2022-11-22T14:32:04.984Z,63.73
2022-11-22T14:34:33.199Z,64.33
2022-11-22T14:37:43.786Z,64.60
2022-11-22T14:40:32.687Z,65.20
2022-11-22T14:43:03.546Z,66.24
2022-11-22T14:45:42.468Z,66.58
2022-11-22T14:48:20.712Z,66.97
2022-11-22T14:50:53.065Z,67.50
2022-11-22T14:53:34.531Z,67.50
2022-11-22T14:56:08.965Z,69.11
2022-11-22T14:58:40.335Z,69.21
2022-11-22T15:01:49.222Z,69.76
2022-11-22T15:09:14.763Z,71.84
2022-11-22T15:09:23.875Z,70.36
2022-11-22T15:11:31.901Z,71.76
2022-11-22T15:14:28.549Z,72.54
2022-11-22T15:57:33.391Z,79.82
2022-11-22T16:00:02.365Z,78.70
2022-11-22T16:02:32.063Z,79.99
2022-11-22T16:06:08.281Z,79.75
2022-11-22T16:07:52.509Z,79.17
2022-11-22T16:10:23.814Z,79.79
2022-11-22T16:12:55.632Z,80.63
2022-11-22T16:15:30.364Z,81.96
2022-11-22T16:18:09.551Z,81.73
2022-11-22T16:20:39.452Z,81.29
2022-11-22T16:23:20.109Z,81.79
2022-11-22T16:25:50.429Z,81.93
2022-11-22T16:28:34.143Z,82.56
2022-11-22T16:31:05.774Z,82.81
2022-11-22T16:33:33.965Z,83.47
2022-11-22T16:36:02.933Z,82.37
2022-11-22T16:38:31.067Z,82.64
2022-11-22T16:41:00.251Z,82.26
2022-11-22T16:44:17.592Z,83.34
2022-11-22T16:46:47.910Z,83.62
2022-11-22T16:49:20.364Z,83.15
2022-11-22T16:51:48.998Z,84.76
2022-11-22T16:54:19.280Z,84.11
2022-11-22T16:56:47.692Z,83.13
2022-11-22T16:59:15.541Z,83.45
2022-11-22T17:01:44.497Z,84.28
2022-11-22T17:04:25.289Z,83.32
2022-11-22T17:06:53.956Z,84.05
2022-11-22T17:09:22.267Z,83.02
2022-11-22T17:11:50.979Z,83.30
2022-11-22T17:14:19.554Z,82.59
2022-11-22T17:16:47.816Z,83.39
2022-11-22T17:19:51.732Z,84.56
2022-11-22T17:22:07.169Z,85.92
2022-11-22T17:24:35.239Z,85.64
2022-11-22T17:27:03.161Z,85.91
2022-11-22T17:32:19.934Z,86.00
2022-11-22T17:34:49.408Z,86.24
2022-11-22T17:37:17.353Z,85.13
2022-11-22T17:39:45.267Z,86.28
2022-11-22T17:42:13.297Z,86.36
2022-11-22T17:44:41.331Z,86.37
2022-11-22T17:47:09.204Z,87.03
2022-11-22T17:49:37.060Z,85.96
2022-11-22T17:52:06.299Z,86.65
2022-11-22T17:54:34.339Z,86.82
2022-11-22T17:57:02.163Z,86.40
2022-11-22T17:59:30.396Z,86.77
2022-11-22T18:01:58.750Z,86.31
2022-11-22T18:04:26.655Z,86.29
2022-11-22T18:06:54.550Z,86.54
2022-11-22T18:09:23.831Z,86.51
2022-11-22T18:11:51.677Z,86.53
2022-11-22T18:14:19.533Z,87.00
2022-11-22T18:16:47.400Z,86.40
2022-11-22T18:19:15.204Z,86.55
2022-11-22T18:21:43.188Z,86.21
2022-11-22T18:24:11.089Z,87.42
2022-11-22T18:26:41.301Z,86.99
2022-11-22T18:32:00.111Z,86.93
2022-11-22T18:34:29.012Z,87.48
2022-11-22T18:37:01.959Z,87.67
2022-11-22T18:39:32.393Z,87.93
2022-11-22T18:42:01.978Z,87.78
2022-11-22T18:44:29.918Z,87.04
2022-11-22T18:46:57.890Z,87.57
2022-11-22T18:49:25.826Z,87.69
2022-11-22T18:51:53.905Z,87.37
2022-11-22T18:54:22.874Z,88.99
2022-11-22T18:56:50.832Z,87.16
2022-11-22T18:59:20.310Z,88.39
2022-11-22T19:01:48.275Z,88.78
2022-11-22T19:04:17.223Z,88.36
2022-11-22T19:06:46.099Z,87.91
2022-11-22T19:09:14.280Z,87.35
2022-11-22T19:11:42.278Z,88.07
2022-11-22T19:14:10.388Z,88.49
2022-11-22T19:16:39.635Z,88.11
2022-11-22T19:19:08.446Z,88.83
2022-11-22T19:21:36.415Z,87.42
2022-11-22T19:24:04.773Z,87.76
2022-11-22T19:26:32.773Z,87.21
2022-11-22T19:29:02.580Z,88.24
2022-11-22T19:31:31.542Z,87.50
2022-11-22T19:34:01.529Z,87.24
2022-11-22T19:36:34.154Z,87.76
2022-11-22T19:39:03.690Z,86.31
2022-11-22T19:41:32.014Z,87.27
2022-11-22T19:44:00.078Z,87.43
2022-11-22T19:46:28.297Z,86.45
2022-11-22T19:48:57.955Z,86.11
2022-11-22T19:51:30.933Z,86.65
2022-11-22T19:54:02.244Z,86.70
2022-11-22T19:56:32.533Z,87.53
2022-11-22T19:59:01.847Z,86.93
2022-11-22T20:01:31.240Z,87.11
2022-11-22T20:04:00.647Z,86.68
2022-11-22T20:06:30.110Z,87.63
2022-11-22T20:09:01.923Z,86.91
2022-11-22T20:11:29.791Z,87.33
2022-11-22T20:13:57.843Z,88.14
2022-11-22T20:16:28.071Z,87.39
2022-11-22T20:18:56.937Z,88.36
2022-11-22T20:21:26.081Z,88.65
2022-11-22T20:23:55.490Z,90.43
2022-11-22T20:26:24.114Z,90.94
2022-11-22T20:28:56.308Z,91.10
2022-11-22T20:31:24.576Z,91.59
2022-11-22T20:33:54.263Z,92.20
2022-11-22T20:36:24.339Z,92.76
2022-11-22T20:38:52.837Z,92.49
2022-11-22T20:41:23.308Z,93.13
2022-11-22T20:43:51.160Z,92.04
2022-11-22T20:46:20.564Z,91.79
2022-11-22T20:48:52.095Z,91.33
2022-11-22T20:51:22.594Z,91.11
2022-11-22T20:53:51.280Z,91.00
2022-11-22T20:56:21.472Z,90.80
2022-11-22T20:58:50.049Z,91.19
2022-11-22T21:01:19.889Z,91.84
2022-11-22T21:03:48.723Z,92.15
2022-11-22T21:06:18.380Z,92.11
2022-11-22T21:08:46.709Z,92.98
2022-11-22T21:11:16.440Z,93.15
2022-11-22T21:13:47.286Z,93.56
2022-11-22T21:16:25.319Z,93.96
2022-11-22T21:18:54.406Z,94.90
2022-11-22T21:21:25.829Z,94.38
2022-11-22T21:23:55.094Z,95.28
2022-11-22T21:26:24.336Z,95.53
2022-11-22T21:28:54.530Z,96.19
2022-11-22T21:31:23.814Z,96.81
2022-11-22T21:33:52.869Z,97.52
2022-11-22T21:36:22.167Z,97.64
2022-11-22T21:38:50.150Z,98.38
2022-11-22T21:44:11.748Z,98.70
2022-11-22T21:46:40.270Z,98.68
2022-11-22T21:49:08.746Z,98.86
2022-11-22T21:51:36.676Z,99.50
2022-11-22T21:54:05.095Z,99.86
2022-11-22T21:56:33.169Z,99.38
2022-11-22T21:59:01.177Z,100.00
2022-11-22T22:01:30.614Z,100.00
2022-11-22T22:03:58.556Z,100.00
2022-11-22T22:06:27.262Z,100.00
2022-11-22T22:08:55.137Z,100.00
2022-11-22T22:11:23.349Z,100.00
2022-11-22T22:13:53.522Z,100.00
2022-11-22T22:16:23.735Z,100.00
2022-11-22T22:18:54.403Z,100.00
2022-11-22T22:21:22.735Z,100.00
2022-11-22T22:23:51.218Z,100.00
2022-11-22T22:26:19.146Z,100.00
2022-11-22T22:28:47.713Z,100.00
2022-11-22T22:31:21.443Z,100.00
2022-11-22T22:33:50.984Z,100.00
2022-11-22T22:36:20.618Z,100.00
2022-11-22T22:38:48.848Z,100.00
2022-11-22T22:41:17.147Z,100.00
2022-11-22T22:43:47.225Z,100.00
2022-11-22T22:46:17.357Z,100.00
2022-11-22T22:48:45.496Z,100.00
2022-11-22T22:51:15.070Z,100.00
2022-11-22T22:53:45.374Z,100.00
2022-11-22T22:56:14.995Z,100.00
2022-11-22T22:58:43.048Z,100.00
2022-11-22T23:01:14.616Z,100.00
2022-11-22T23:03:42.759Z,100.00
2022-11-22T23:06:12.706Z,100.00
2022-11-22T23:08:41.132Z,100.00
2022-11-22T23:11:11.818Z,100.00
2022-11-22T23:13:41.325Z,100.00
2022-11-22T23:16:11.159Z,100.00
2022-11-22T23:18:41.720Z,100.00
2022-11-22T23:21:11.886Z,100.00
2022-11-22T23:23:40.141Z,100.00
2022-11-22T23:26:11.606Z,100.00
2022-11-22T23:28:39.667Z,100.00
2022-11-22T23:31:08.896Z,100.00
2022-11-22T23:33:36.898Z,100.00
2022-11-22T23:36:05.703Z,100.00
2022-11-22T23:38:34.024Z,100.00
2022-11-22T23:41:02.222Z,100.00
2022-11-22T23:43:31.876Z,100.00
2022-11-22T23:46:00.141Z,100.00
2022-11-22T23:48:28.310Z,100.00
2022-11-22T23:50:56.315Z,100.00
2022-11-22T23:53:25.063Z,100.00
2022-11-22T23:55:52.943Z,100.00
2022-11-22T23:58:20.753Z,100.00
